sensor_id;sensor_type;location;lat;lon;timestamp;temperature;humidity
37050;DHT22;22958;51.232;6.826;2023-07-29T00:00:46;19.20;99.90
37050;DHT22;22958;51.232;6.826;2023-07-29T00:03:12;19.20;99.90
37050;DHT22;22958;51.232;6.826;2023-07-29T00:05:38;19.20;99.90
37050;DHT22;22958;51.232;6.826;2023-07-29T00:08:04;19.20;99.90
37050;DHT22;22958;51.232;6.826;2023-07-29T00:10:32;19.20;99.90
37050;DHT22;22958;51.232;6.826;2023-07-29T00:12:58;19.20;99.90
37050;DHT22;22958;51.232;6.826;2023-07-29T00:15:24;19.20;99.90
37050;DHT22;22958;51.232;6.826;2023-07-29T00:17:49;19.20;99.90
37050;DHT22;22958;51.232;6.826;2023-07-29T00:20:16;19.20;99.90
37050;DHT22;22958;51.232;6.826;2023-07-29T00:22:41;19.20;99.90
37050;DHT22;22958;51.232;6.826;2023-07-29T00:25:07;19.20;99.90
37050;DHT22;22958;51.232;6.826;2023-07-29T00:27:33;19.20;99.90
37050;DHT22;22958;51.232;6.826;2023-07-29T00:29:58;19.20;99.90
37050;DHT22;22958;51.232;6.826;2023-07-29T00:32:24;19.20;99.90
37050;DHT22;22958;51.232;6.826;2023-07-29T00:34:49;19.20;99.90
37050;DHT22;22958;51.232;6.826;2023-07-29T00:37:15;19.20;99.90
37050;DHT22;22958;51.232;6.826;2023-07-29T00:39:40;19.20;99.90
37050;DHT22;22958;51.232;6.826;2023-07-29T00:42:06;19.20;99.90
37050;DHT22;22958;51.232;6.826;2023-07-29T00:44:32;19.20;99.90
37050;DHT22;22958;51.232;6.826;2023-07-29T00:46:58;19.10;99.90
37050;DHT22;22958;51.232;6.826;2023-07-29T00:49:26;19.10;99.90
37050;DHT22;22958;51.232;6.826;2023-07-29T00:51:51;19.20;99.90
37050;DHT22;22958;51.232;6.826;2023-07-29T00:54:17;19.10;99.90
37050;DHT22;22958;51.232;6.826;2023-07-29T00:56:42;19.10;99.90
37050;DHT22;22958;51.232;6.826;2023-07-29T00:59:08;19.00;99.90
37050;DHT22;22958;51.232;6.826;2023-07-29T01:01:34;18.90;99.90
37050;DHT22;22958;51.232;6.826;2023-07-29T01:03:59;18.90;99.90
37050;DHT22;22958;51.232;6.826;2023-07-29T01:06:49;18.90;99.90
37050;DHT22;22958;51.232;6.826;2023-07-29T01:09:30;18.90;99.90
37050;DHT22;22958;51.232;6.826;2023-07-29T01:12:08;18.90;99.90
37050;DHT22;22958;51.232;6.826;2023-07-29T01:15:09;18.90;99.90
37050;DHT22;22958;51.232;6.826;2023-07-29T01:17:33;18.80;99.90
37050;DHT22;22958;51.232;6.826;2023-07-29T01:20:09;18.80;99.90
37050;DHT22;22958;51.232;6.826;2023-07-29T01:22:36;18.80;99.90
37050;DHT22;22958;51.232;6.826;2023-07-29T01:25:02;18.70;99.90
37050;DHT22;22958;51.232;6.826;2023-07-29T01:27:29;18.80;99.90
37050;DHT22;22958;51.232;6.826;2023-07-29T01:29:55;18.80;99.90
37050;DHT22;22958;51.232;6.826;2023-07-29T01:35:36;18.90;99.90
37050;DHT22;22958;51.232;6.826;2023-07-29T01:38:12;18.90;99.90
37050;DHT22;22958;51.232;6.826;2023-07-29T01:40:39;18.90;99.90
37050;DHT22;22958;51.232;6.826;2023-07-29T01:43:06;18.90;99.90
37050;DHT22;22958;51.232;6.826;2023-07-29T01:45:33;18.90;99.90
37050;DHT22;22958;51.232;6.826;2023-07-29T01:48:04;18.90;99.90
37050;DHT22;22958;51.232;6.826;2023-07-29T01:50:29;18.90;99.90
37050;DHT22;22958;51.232;6.826;2023-07-29T01:52:57;18.90;99.90
37050;DHT22;22958;51.232;6.826;2023-07-29T01:55:23;18.90;99.90
37050;DHT22;22958;51.232;6.826;2023-07-29T01:57:48;18.90;99.90
37050;DHT22;22958;51.232;6.826;2023-07-29T02:00:14;18.80;99.90
37050;DHT22;22958;51.232;6.826;2023-07-29T02:02:40;18.80;99.90
37050;DHT22;22958;51.232;6.826;2023-07-29T02:05:06;18.80;99.90
37050;DHT22;22958;51.232;6.826;2023-07-29T02:07:31;18.80;99.90
37050;DHT22;22958;51.232;6.826;2023-07-29T02:09:57;18.80;99.90
37050;DHT22;22958;51.232;6.826;2023-07-29T02:12:22;18.90;99.90
37050;DHT22;22958;51.232;6.826;2023-07-29T02:14:48;18.80;99.90
37050;DHT22;22958;51.232;6.826;2023-07-29T02:17:13;18.80;99.90
37050;DHT22;22958;51.232;6.826;2023-07-29T02:19:39;18.80;99.90
37050;DHT22;22958;51.232;6.826;2023-07-29T02:22:04;18.80;99.90
37050;DHT22;22958;51.232;6.826;2023-07-29T02:24:30;18.80;99.90
37050;DHT22;22958;51.232;6.826;2023-07-29T02:26:55;18.80;99.90
37050;DHT22;22958;51.232;6.826;2023-07-29T02:29:21;18.80;99.90
37050;DHT22;22958;51.232;6.826;2023-07-29T02:31:47;18.90;99.90
37050;DHT22;22958;51.232;6.826;2023-07-29T02:34:13;18.90;99.90
37050;DHT22;22958;51.232;6.826;2023-07-29T02:36:38;18.80;99.90
37050;DHT22;22958;51.232;6.826;2023-07-29T02:39:04;18.90;99.90
37050;DHT22;22958;51.232;6.826;2023-07-29T02:41:29;18.80;99.90
37050;DHT22;22958;51.232;6.826;2023-07-29T02:43:55;18.90;99.90
37050;DHT22;22958;51.232;6.826;2023-07-29T02:46:20;18.80;99.90
37050;DHT22;22958;51.232;6.826;2023-07-29T02:48:46;18.80;99.90
37050;DHT22;22958;51.232;6.826;2023-07-29T02:51:12;18.80;99.90
37050;DHT22;22958;51.232;6.826;2023-07-29T02:53:37;18.90;99.90
37050;DHT22;22958;51.232;6.826;2023-07-29T02:56:04;18.90;99.90
37050;DHT22;22958;51.232;6.826;2023-07-29T02:58:29;18.90;99.90
37050;DHT22;22958;51.232;6.826;2023-07-29T03:01:02;18.90;99.90
37050;DHT22;22958;51.232;6.826;2023-07-29T03:03:28;18.90;99.90
37050;DHT22;22958;51.232;6.826;2023-07-29T03:06:01;18.80;99.90
37050;DHT22;22958;51.232;6.826;2023-07-29T03:08:27;18.80;99.90
37050;DHT22;22958;51.232;6.826;2023-07-29T03:10:53;18.80;99.90
37050;DHT22;22958;51.232;6.826;2023-07-29T03:13:19;18.90;99.90
37050;DHT22;22958;51.232;6.826;2023-07-29T03:15:44;18.90;99.90
37050;DHT22;22958;51.232;6.826;2023-07-29T03:18:10;18.90;99.90
37050;DHT22;22958;51.232;6.826;2023-07-29T03:20:35;18.90;99.90
37050;DHT22;22958;51.232;6.826;2023-07-29T03:23:01;18.90;99.90
37050;DHT22;22958;51.232;6.826;2023-07-29T03:25:26;18.90;99.90
37050;DHT22;22958;51.232;6.826;2023-07-29T03:27:52;18.90;99.90
37050;DHT22;22958;51.232;6.826;2023-07-29T03:30:21;18.90;99.90
37050;DHT22;22958;51.232;6.826;2023-07-29T03:32:47;18.80;99.90
37050;DHT22;22958;51.232;6.826;2023-07-29T03:35:13;18.90;99.90
37050;DHT22;22958;51.232;6.826;2023-07-29T03:37:39;18.90;99.90
37050;DHT22;22958;51.232;6.826;2023-07-29T03:40:05;18.90;99.90
37050;DHT22;22958;51.232;6.826;2023-07-29T03:42:31;18.90;99.90
37050;DHT22;22958;51.232;6.826;2023-07-29T03:44:56;18.90;99.90
37050;DHT22;22958;51.232;6.826;2023-07-29T03:47:22;18.80;99.90
37050;DHT22;22958;51.232;6.826;2023-07-29T03:49:48;18.90;99.90
37050;DHT22;22958;51.232;6.826;2023-07-29T03:52:13;18.90;99.90
37050;DHT22;22958;51.232;6.826;2023-07-29T03:54:39;18.80;99.90
37050;DHT22;22958;51.232;6.826;2023-07-29T03:57:05;18.90;99.90
37050;DHT22;22958;51.232;6.826;2023-07-29T03:59:30;18.90;99.90
37050;DHT22;22958;51.232;6.826;2023-07-29T04:01:56;18.90;99.90
37050;DHT22;22958;51.232;6.826;2023-07-29T04:04:21;19.00;99.90
37050;DHT22;22958;51.232;6.826;2023-07-29T04:06:47;18.90;99.90
37050;DHT22;22958;51.232;6.826;2023-07-29T04:09:12;18.90;99.90
37050;DHT22;22958;51.232;6.826;2023-07-29T04:11:38;18.90;99.90
37050;DHT22;22958;51.232;6.826;2023-07-29T04:14:04;18.90;99.90
37050;DHT22;22958;51.232;6.826;2023-07-29T04:16:29;18.90;99.90
37050;DHT22;22958;51.232;6.826;2023-07-29T04:18:55;18.90;99.90
37050;DHT22;22958;51.232;6.826;2023-07-29T04:21:20;18.90;99.90
37050;DHT22;22958;51.232;6.826;2023-07-29T04:23:46;18.90;99.90
37050;DHT22;22958;51.232;6.826;2023-07-29T04:26:11;18.90;99.90
37050;DHT22;22958;51.232;6.826;2023-07-29T04:28:37;19.00;99.90
37050;DHT22;22958;51.232;6.826;2023-07-29T04:31:02;18.90;99.90
37050;DHT22;22958;51.232;6.826;2023-07-29T04:33:29;18.90;99.90
37050;DHT22;22958;51.232;6.826;2023-07-29T04:35:55;18.90;99.90
37050;DHT22;22958;51.232;6.826;2023-07-29T04:38:20;18.90;99.90
37050;DHT22;22958;51.232;6.826;2023-07-29T04:40:49;18.90;99.90
37050;DHT22;22958;51.232;6.826;2023-07-29T04:43:14;18.80;99.90
37050;DHT22;22958;51.232;6.826;2023-07-29T04:45:43;18.90;99.90
37050;DHT22;22958;51.232;6.826;2023-07-29T04:48:09;18.80;99.90
37050;DHT22;22958;51.232;6.826;2023-07-29T04:50:34;18.90;99.90
37050;DHT22;22958;51.232;6.826;2023-07-29T04:53:00;18.90;99.90
37050;DHT22;22958;51.232;6.826;2023-07-29T04:55:25;18.90;99.90
37050;DHT22;22958;51.232;6.826;2023-07-29T04:57:51;18.80;99.90
37050;DHT22;22958;51.232;6.826;2023-07-29T05:00:17;18.80;99.90
37050;DHT22;22958;51.232;6.826;2023-07-29T05:02:42;18.80;99.90
37050;DHT22;22958;51.232;6.826;2023-07-29T05:05:08;18.80;99.90
37050;DHT22;22958;51.232;6.826;2023-07-29T05:07:34;18.70;99.90
37050;DHT22;22958;51.232;6.826;2023-07-29T05:09:59;18.80;99.90
37050;DHT22;22958;51.232;6.826;2023-07-29T05:12:25;18.70;99.90
37050;DHT22;22958;51.232;6.826;2023-07-29T05:14:50;18.80;99.90
37050;DHT22;22958;51.232;6.826;2023-07-29T05:17:16;18.80;99.90
37050;DHT22;22958;51.232;6.826;2023-07-29T05:19:41;18.80;99.90
37050;DHT22;22958;51.232;6.826;2023-07-29T05:22:07;18.70;99.90
37050;DHT22;22958;51.232;6.826;2023-07-29T05:24:32;18.80;99.90
37050;DHT22;22958;51.232;6.826;2023-07-29T05:26:58;18.80;99.90
37050;DHT22;22958;51.232;6.826;2023-07-29T05:29:23;18.80;99.90
37050;DHT22;22958;51.232;6.826;2023-07-29T05:31:49;18.90;99.90
37050;DHT22;22958;51.232;6.826;2023-07-29T05:34:14;18.80;99.90
37050;DHT22;22958;51.232;6.826;2023-07-29T05:36:40;18.80;99.90
37050;DHT22;22958;51.232;6.826;2023-07-29T05:39:06;18.80;99.90
37050;DHT22;22958;51.232;6.826;2023-07-29T05:41:32;18.70;99.90
37050;DHT22;22958;51.232;6.826;2023-07-29T05:43:58;18.70;99.90
37050;DHT22;22958;51.232;6.826;2023-07-29T05:46:23;18.60;99.90
37050;DHT22;22958;51.232;6.826;2023-07-29T05:48:49;18.70;99.90
37050;DHT22;22958;51.232;6.826;2023-07-29T05:51:14;18.80;99.90
37050;DHT22;22958;51.232;6.826;2023-07-29T05:53:40;18.80;99.90
37050;DHT22;22958;51.232;6.826;2023-07-29T05:56:05;18.80;99.90
37050;DHT22;22958;51.232;6.826;2023-07-29T05:58:31;18.70;99.90
37050;DHT22;22958;51.232;6.826;2023-07-29T06:00:57;18.80;99.90
37050;DHT22;22958;51.232;6.826;2023-07-29T06:03:23;18.80;99.90
37050;DHT22;22958;51.232;6.826;2023-07-29T06:05:49;18.80;99.90
37050;DHT22;22958;51.232;6.826;2023-07-29T06:08:14;18.90;99.90
37050;DHT22;22958;51.232;6.826;2023-07-29T06:10:40;19.00;99.90
37050;DHT22;22958;51.232;6.826;2023-07-29T06:13:05;18.90;99.90
37050;DHT22;22958;51.232;6.826;2023-07-29T06:15:31;18.90;99.90
37050;DHT22;22958;51.232;6.826;2023-07-29T06:17:57;18.90;99.90
37050;DHT22;22958;51.232;6.826;2023-07-29T06:20:22;18.80;99.90
37050;DHT22;22958;51.232;6.826;2023-07-29T06:22:48;18.90;99.90
37050;DHT22;22958;51.232;6.826;2023-07-29T06:25:13;18.80;99.90
37050;DHT22;22958;51.232;6.826;2023-07-29T06:27:39;18.80;99.90
37050;DHT22;22958;51.232;6.826;2023-07-29T06:30:05;18.90;99.90
37050;DHT22;22958;51.232;6.826;2023-07-29T06:32:31;19.00;99.90
37050;DHT22;22958;51.232;6.826;2023-07-29T06:34:57;18.90;99.90
37050;DHT22;22958;51.232;6.826;2023-07-29T06:37:22;18.90;99.90
37050;DHT22;22958;51.232;6.826;2023-07-29T06:39:48;18.80;99.90
37050;DHT22;22958;51.232;6.826;2023-07-29T06:42:13;18.90;99.90
37050;DHT22;22958;51.232;6.826;2023-07-29T06:44:40;18.90;99.90
37050;DHT22;22958;51.232;6.826;2023-07-29T06:47:05;18.90;99.90
37050;DHT22;22958;51.232;6.826;2023-07-29T06:49:31;18.80;99.90
37050;DHT22;22958;51.232;6.826;2023-07-29T06:51:56;18.80;99.90
37050;DHT22;22958;51.232;6.826;2023-07-29T06:54:25;18.80;99.90
37050;DHT22;22958;51.232;6.826;2023-07-29T06:56:54;18.80;99.90
37050;DHT22;22958;51.232;6.826;2023-07-29T06:59:19;19.00;99.90
37050;DHT22;22958;51.232;6.826;2023-07-29T07:01:45;19.10;99.90
37050;DHT22;22958;51.232;6.826;2023-07-29T07:04:11;19.10;99.90
37050;DHT22;22958;51.232;6.826;2023-07-29T07:06:36;19.10;99.90
37050;DHT22;22958;51.232;6.826;2023-07-29T07:09:02;19.30;99.90
37050;DHT22;22958;51.232;6.826;2023-07-29T07:11:28;19.30;99.90
37050;DHT22;22958;51.232;6.826;2023-07-29T07:13:53;19.30;99.90
37050;DHT22;22958;51.232;6.826;2023-07-29T07:16:19;19.30;99.90
37050;DHT22;22958;51.232;6.826;2023-07-29T07:18:44;19.40;99.90
37050;DHT22;22958;51.232;6.826;2023-07-29T07:21:10;19.30;99.90
37050;DHT22;22958;51.232;6.826;2023-07-29T07:23:35;19.50;99.90
37050;DHT22;22958;51.232;6.826;2023-07-29T07:26:01;19.60;99.90
37050;DHT22;22958;51.232;6.826;2023-07-29T07:28:27;19.50;99.90
37050;DHT22;22958;51.232;6.826;2023-07-29T07:30:52;19.50;99.90
37050;DHT22;22958;51.232;6.826;2023-07-29T07:33:18;19.50;99.90
37050;DHT22;22958;51.232;6.826;2023-07-29T07:35:43;19.60;99.90
37050;DHT22;22958;51.232;6.826;2023-07-29T07:38:09;19.60;99.90
37050;DHT22;22958;51.232;6.826;2023-07-29T07:40:36;19.70;99.90
37050;DHT22;22958;51.232;6.826;2023-07-29T07:43:02;19.90;99.90
37050;DHT22;22958;51.232;6.826;2023-07-29T07:45:28;19.70;99.90
37050;DHT22;22958;51.232;6.826;2023-07-29T07:47:53;19.70;99.90
37050;DHT22;22958;51.232;6.826;2023-07-29T07:50:19;20.00;99.90
37050;DHT22;22958;51.232;6.826;2023-07-29T07:52:45;20.30;99.90
37050;DHT22;22958;51.232;6.826;2023-07-29T07:55:11;20.20;99.90
37050;DHT22;22958;51.232;6.826;2023-07-29T07:57:36;20.30;99.90
37050;DHT22;22958;51.232;6.826;2023-07-29T08:00:02;20.00;99.90
37050;DHT22;22958;51.232;6.826;2023-07-29T08:02:29;19.90;99.90
37050;DHT22;22958;51.232;6.826;2023-07-29T08:04:55;20.00;99.90
37050;DHT22;22958;51.232;6.826;2023-07-29T08:07:20;20.40;99.90
37050;DHT22;22958;51.232;6.826;2023-07-29T08:09:46;20.50;99.90
37050;DHT22;22958;51.232;6.826;2023-07-29T08:12:11;20.50;99.90
37050;DHT22;22958;51.232;6.826;2023-07-29T08:14:37;20.50;99.90
37050;DHT22;22958;51.232;6.826;2023-07-29T08:17:02;20.60;99.90
37050;DHT22;22958;51.232;6.826;2023-07-29T08:19:28;20.90;99.90
37050;DHT22;22958;51.232;6.826;2023-07-29T08:21:53;20.90;99.90
37050;DHT22;22958;51.232;6.826;2023-07-29T08:24:19;20.80;99.90
37050;DHT22;22958;51.232;6.826;2023-07-29T08:26:45;20.80;99.90
37050;DHT22;22958;51.232;6.826;2023-07-29T08:29:11;20.70;99.90
37050;DHT22;22958;51.232;6.826;2023-07-29T08:31:37;20.90;99.90
37050;DHT22;22958;51.232;6.826;2023-07-29T08:34:03;21.20;99.90
37050;DHT22;22958;51.232;6.826;2023-07-29T08:36:28;21.30;99.90
37050;DHT22;22958;51.232;6.826;2023-07-29T08:38:54;21.40;99.90
37050;DHT22;22958;51.232;6.826;2023-07-29T08:41:25;21.20;99.90
37050;DHT22;22958;51.232;6.826;2023-07-29T08:44:09;20.60;99.90
37050;DHT22;22958;51.232;6.826;2023-07-29T08:46:38;20.60;99.90
37050;DHT22;22958;51.232;6.826;2023-07-29T08:49:03;21.00;99.90
37050;DHT22;22958;51.232;6.826;2023-07-29T08:51:31;21.20;99.90
37050;DHT22;22958;51.232;6.826;2023-07-29T08:53:58;21.30;99.90
37050;DHT22;22958;51.232;6.826;2023-07-29T08:56:24;21.50;99.90
37050;DHT22;22958;51.232;6.826;2023-07-29T08:58:50;21.60;99.90
37050;DHT22;22958;51.232;6.826;2023-07-29T09:01:16;21.60;99.90
37050;DHT22;22958;51.232;6.826;2023-07-29T09:03:42;21.60;99.90
37050;DHT22;22958;51.232;6.826;2023-07-29T09:06:08;21.80;99.90
37050;DHT22;22958;51.232;6.826;2023-07-29T09:08:34;22.00;99.90
37050;DHT22;22958;51.232;6.826;2023-07-29T09:11:00;22.00;99.90
37050;DHT22;22958;51.232;6.826;2023-07-29T09:13:26;22.00;99.90
37050;DHT22;22958;51.232;6.826;2023-07-29T09:15:57;21.80;99.90
37050;DHT22;22958;51.232;6.826;2023-07-29T09:18:23;21.70;99.90
37050;DHT22;22958;51.232;6.826;2023-07-29T09:20:49;21.60;99.90
37050;DHT22;22958;51.232;6.826;2023-07-29T09:23:15;21.70;99.90
37050;DHT22;22958;51.232;6.826;2023-07-29T09:25:41;21.70;99.90
37050;DHT22;22958;51.232;6.826;2023-07-29T09:28:14;21.80;99.90
37050;DHT22;22958;51.232;6.826;2023-07-29T09:30:42;21.60;99.90
37050;DHT22;22958;51.232;6.826;2023-07-29T09:33:10;21.40;99.90
37050;DHT22;22958;51.232;6.826;2023-07-29T09:35:37;21.50;99.90
37050;DHT22;22958;51.232;6.826;2023-07-29T09:38:04;21.60;99.90
37050;DHT22;22958;51.232;6.826;2023-07-29T09:40:40;21.70;99.90
37050;DHT22;22958;51.232;6.826;2023-07-29T09:43:08;21.50;99.90
37050;DHT22;22958;51.232;6.826;2023-07-29T09:45:34;21.40;99.90
37050;DHT22;22958;51.232;6.826;2023-07-29T09:48:01;21.40;99.90
37050;DHT22;22958;51.232;6.826;2023-07-29T09:50:27;21.40;99.90
37050;DHT22;22958;51.232;6.826;2023-07-29T09:52:54;21.60;99.90
37050;DHT22;22958;51.232;6.826;2023-07-29T09:55:22;21.60;99.90
37050;DHT22;22958;51.232;6.826;2023-07-29T09:57:53;21.60;99.90
37050;DHT22;22958;51.232;6.826;2023-07-29T10:00:19;21.60;99.90
37050;DHT22;22958;51.232;6.826;2023-07-29T10:02:44;21.90;99.90
37050;DHT22;22958;51.232;6.826;2023-07-29T10:05:10;21.90;99.90
37050;DHT22;22958;51.232;6.826;2023-07-29T10:07:39;22.10;99.90
37050;DHT22;22958;51.232;6.826;2023-07-29T10:10:06;22.30;99.90
37050;DHT22;22958;51.232;6.826;2023-07-29T10:12:33;22.50;99.90
37050;DHT22;22958;51.232;6.826;2023-07-29T10:15:08;22.80;99.90
37050;DHT22;22958;51.232;6.826;2023-07-29T10:17:35;22.80;99.90
37050;DHT22;22958;51.232;6.826;2023-07-29T10:20:02;22.70;99.90
37050;DHT22;22958;51.232;6.826;2023-07-29T10:22:32;22.80;99.90
37050;DHT22;22958;51.232;6.826;2023-07-29T10:25:11;22.90;99.90
37050;DHT22;22958;51.232;6.826;2023-07-29T10:30:10;23.20;99.90
37050;DHT22;22958;51.232;6.826;2023-07-29T10:32:36;23.00;99.90
37050;DHT22;22958;51.232;6.826;2023-07-29T10:35:02;22.70;99.90
37050;DHT22;22958;51.232;6.826;2023-07-29T10:37:28;22.60;99.90
37050;DHT22;22958;51.232;6.826;2023-07-29T10:39:55;22.40;99.90
37050;DHT22;22958;51.232;6.826;2023-07-29T10:42:21;22.30;99.90
37050;DHT22;22958;51.232;6.826;2023-07-29T10:44:48;22.20;99.90
37050;DHT22;22958;51.232;6.826;2023-07-29T10:47:24;22.10;99.90
37050;DHT22;22958;51.232;6.826;2023-07-29T10:49:53;22.30;99.90
37050;DHT22;22958;51.232;6.826;2023-07-29T10:55:01;22.60;99.90
37050;DHT22;22958;51.232;6.826;2023-07-29T10:57:31;22.90;99.90
37050;DHT22;22958;51.232;6.826;2023-07-29T10:59:57;23.20;99.90
37050;DHT22;22958;51.232;6.826;2023-07-29T11:02:35;23.50;99.90
37050;DHT22;22958;51.232;6.826;2023-07-29T11:05:08;23.40;99.90
37050;DHT22;22958;51.232;6.826;2023-07-29T11:07:45;23.50;99.90
37050;DHT22;22958;51.232;6.826;2023-07-29T11:10:11;23.40;99.90
37050;DHT22;22958;51.232;6.826;2023-07-29T11:12:48;23.50;99.90
37050;DHT22;22958;51.232;6.826;2023-07-29T11:15:19;23.80;99.90
37050;DHT22;22958;51.232;6.826;2023-07-29T11:17:56;23.80;99.90
37050;DHT22;22958;51.232;6.826;2023-07-29T11:20:26;23.70;99.90
37050;DHT22;22958;51.232;6.826;2023-07-29T11:22:53;23.90;99.90
37050;DHT22;22958;51.232;6.826;2023-07-29T11:25:23;23.40;99.90
37050;DHT22;22958;51.232;6.826;2023-07-29T11:27:48;22.90;99.90
37050;DHT22;22958;51.232;6.826;2023-07-29T11:30:15;22.40;99.90
37050;DHT22;22958;51.232;6.826;2023-07-29T11:32:43;22.20;99.90
37050;DHT22;22958;51.232;6.826;2023-07-29T11:35:11;22.30;99.90
37050;DHT22;22958;51.232;6.826;2023-07-29T11:37:38;22.20;99.90
37050;DHT22;22958;51.232;6.826;2023-07-29T11:40:04;22.20;99.90
37050;DHT22;22958;51.232;6.826;2023-07-29T11:42:32;22.30;99.90
37050;DHT22;22958;51.232;6.826;2023-07-29T11:44:59;22.70;99.90
37050;DHT22;22958;51.232;6.826;2023-07-29T11:47:25;22.90;99.90
37050;DHT22;22958;51.232;6.826;2023-07-29T11:49:51;23.10;99.90
37050;DHT22;22958;51.232;6.826;2023-07-29T11:52:18;23.10;99.90
37050;DHT22;22958;51.232;6.826;2023-07-29T11:54:46;22.90;99.90
37050;DHT22;22958;51.232;6.826;2023-07-29T11:57:12;22.90;99.90
37050;DHT22;22958;51.232;6.826;2023-07-29T11:59:39;22.90;99.90
37050;DHT22;22958;51.232;6.826;2023-07-29T12:02:15;22.80;99.90
37050;DHT22;22958;51.232;6.826;2023-07-29T12:04:41;22.70;99.90
37050;DHT22;22958;51.232;6.826;2023-07-29T12:07:08;22.90;99.90
37050;DHT22;22958;51.232;6.826;2023-07-29T12:09:34;23.20;99.90
37050;DHT22;22958;51.232;6.826;2023-07-29T12:12:05;23.40;99.90
37050;DHT22;22958;51.232;6.826;2023-07-29T12:14:31;24.60;99.90
37050;DHT22;22958;51.232;6.826;2023-07-29T12:17:03;25.50;99.90
37050;DHT22;22958;51.232;6.826;2023-07-29T12:19:37;25.90;99.90
37050;DHT22;22958;51.232;6.826;2023-07-29T12:22:04;25.30;99.90
37050;DHT22;22958;51.232;6.826;2023-07-29T12:24:35;25.90;99.90
37050;DHT22;22958;51.232;6.826;2023-07-29T12:27:01;26.30;99.90
37050;DHT22;22958;51.232;6.826;2023-07-29T12:29:26;26.60;99.90
37050;DHT22;22958;51.232;6.826;2023-07-29T12:31:59;26.10;99.90
37050;DHT22;22958;51.232;6.826;2023-07-29T12:34:27;26.80;99.90
37050;DHT22;22958;51.232;6.826;2023-07-29T12:36:56;26.70;99.90
37050;DHT22;22958;51.232;6.826;2023-07-29T12:39:27;27.60;99.90
37050;DHT22;22958;51.232;6.826;2023-07-29T12:41:57;27.60;99.90
37050;DHT22;22958;51.232;6.826;2023-07-29T12:44:24;27.70;99.90
37050;DHT22;22958;51.232;6.826;2023-07-29T12:46:50;28.30;99.90
37050;DHT22;22958;51.232;6.826;2023-07-29T12:49:16;28.50;99.90
37050;DHT22;22958;51.232;6.826;2023-07-29T12:51:41;27.90;99.90
37050;DHT22;22958;51.232;6.826;2023-07-29T12:54:07;27.30;99.90
37050;DHT22;22958;51.232;6.826;2023-07-29T12:56:33;25.90;99.90
37050;DHT22;22958;51.232;6.826;2023-07-29T12:58:59;25.20;99.90
37050;DHT22;22958;51.232;6.826;2023-07-29T13:01:25;24.80;99.90
37050;DHT22;22958;51.232;6.826;2023-07-29T13:03:51;24.70;99.90
37050;DHT22;22958;51.232;6.826;2023-07-29T13:06:16;24.60;99.90
37050;DHT22;22958;51.232;6.826;2023-07-29T13:08:44;24.50;99.90
37050;DHT22;22958;51.232;6.826;2023-07-29T13:11:10;24.30;99.90
37050;DHT22;22958;51.232;6.826;2023-07-29T13:13:36;24.20;99.90
37050;DHT22;22958;51.232;6.826;2023-07-29T13:16:01;24.00;99.90
37050;DHT22;22958;51.232;6.826;2023-07-29T13:18:27;23.80;99.90
37050;DHT22;22958;51.232;6.826;2023-07-29T13:20:53;23.50;99.90
37050;DHT22;22958;51.232;6.826;2023-07-29T13:23:19;23.30;99.90
37050;DHT22;22958;51.232;6.826;2023-07-29T13:25:45;23.30;99.90
37050;DHT22;22958;51.232;6.826;2023-07-29T13:28:11;23.30;99.90
37050;DHT22;22958;51.232;6.826;2023-07-29T13:30:38;23.10;99.90
37050;DHT22;22958;51.232;6.826;2023-07-29T13:33:04;22.90;99.90
37050;DHT22;22958;51.232;6.826;2023-07-29T13:35:30;22.70;99.90
37050;DHT22;22958;51.232;6.826;2023-07-29T13:37:56;22.60;99.90
37050;DHT22;22958;51.232;6.826;2023-07-29T13:40:21;22.70;99.90
37050;DHT22;22958;51.232;6.826;2023-07-29T13:42:47;22.60;99.90
37050;DHT22;22958;51.232;6.826;2023-07-29T13:45:12;22.70;99.90
37050;DHT22;22958;51.232;6.826;2023-07-29T13:47:38;22.60;99.90
37050;DHT22;22958;51.232;6.826;2023-07-29T13:50:04;22.60;99.90
37050;DHT22;22958;51.232;6.826;2023-07-29T13:52:30;22.60;99.90
37050;DHT22;22958;51.232;6.826;2023-07-29T13:54:55;22.70;99.90
37050;DHT22;22958;51.232;6.826;2023-07-29T13:57:21;22.70;99.90
37050;DHT22;22958;51.232;6.826;2023-07-29T13:59:46;23.00;99.90
37050;DHT22;22958;51.232;6.826;2023-07-29T14:02:13;23.50;99.90
37050;DHT22;22958;51.232;6.826;2023-07-29T14:04:38;23.70;99.90
37050;DHT22;22958;51.232;6.826;2023-07-29T14:07:04;23.60;99.90
37050;DHT22;22958;51.232;6.826;2023-07-29T14:09:29;23.50;99.90
37050;DHT22;22958;51.232;6.826;2023-07-29T14:11:55;23.50;99.90
37050;DHT22;22958;51.232;6.826;2023-07-29T14:14:20;23.40;99.90
37050;DHT22;22958;51.232;6.826;2023-07-29T14:16:46;22.70;99.90
37050;DHT22;22958;51.232;6.826;2023-07-29T14:19:12;22.10;99.90
37050;DHT22;22958;51.232;6.826;2023-07-29T14:21:37;22.40;99.90
37050;DHT22;22958;51.232;6.826;2023-07-29T14:24:03;23.00;99.90
37050;DHT22;22958;51.232;6.826;2023-07-29T14:26:29;22.80;99.90
37050;DHT22;22958;51.232;6.826;2023-07-29T14:28:54;22.60;99.90
37050;DHT22;22958;51.232;6.826;2023-07-29T14:31:20;22.40;99.90
37050;DHT22;22958;51.232;6.826;2023-07-29T14:33:45;22.80;99.90
37050;DHT22;22958;51.232;6.826;2023-07-29T14:36:11;23.20;99.90
37050;DHT22;22958;51.232;6.826;2023-07-29T14:38:36;23.50;99.90
37050;DHT22;22958;51.232;6.826;2023-07-29T14:41:03;23.60;99.90
37050;DHT22;22958;51.232;6.826;2023-07-29T14:43:30;23.50;99.90
37050;DHT22;22958;51.232;6.826;2023-07-29T14:45:56;22.90;99.90
37050;DHT22;22958;51.232;6.826;2023-07-29T14:48:21;22.70;99.90
37050;DHT22;22958;51.232;6.826;2023-07-29T14:50:47;22.60;99.90
37050;DHT22;22958;51.232;6.826;2023-07-29T14:53:13;22.50;99.90
37050;DHT22;22958;51.232;6.826;2023-07-29T14:55:38;22.50;99.90
37050;DHT22;22958;51.232;6.826;2023-07-29T14:58:04;22.50;99.90
37050;DHT22;22958;51.232;6.826;2023-07-29T15:00:29;22.60;99.90
37050;DHT22;22958;51.232;6.826;2023-07-29T15:02:55;22.80;99.90
37050;DHT22;22958;51.232;6.826;2023-07-29T15:05:20;22.90;99.90
37050;DHT22;22958;51.232;6.826;2023-07-29T15:07:46;23.00;99.90
37050;DHT22;22958;51.232;6.826;2023-07-29T15:10:14;23.00;99.90
37050;DHT22;22958;51.232;6.826;2023-07-29T15:12:40;23.00;99.90
37050;DHT22;22958;51.232;6.826;2023-07-29T15:15:06;23.20;99.90
37050;DHT22;22958;51.232;6.826;2023-07-29T15:17:32;23.60;99.90
37050;DHT22;22958;51.232;6.826;2023-07-29T15:19:57;24.10;99.90
37050;DHT22;22958;51.232;6.826;2023-07-29T15:22:22;24.60;99.90
37050;DHT22;22958;51.232;6.826;2023-07-29T15:24:48;24.10;99.90
37050;DHT22;22958;51.232;6.826;2023-07-29T15:27:14;23.80;99.90
37050;DHT22;22958;51.232;6.826;2023-07-29T15:29:39;23.70;99.90
37050;DHT22;22958;51.232;6.826;2023-07-29T15:32:05;24.50;99.90
37050;DHT22;22958;51.232;6.826;2023-07-29T15:34:31;25.10;99.90